createdAt,value
2023-05-19T00:00:22.835Z,18.10
2023-05-19T00:02:51.718Z,18.10
2023-05-19T00:05:20.626Z,18.10
2023-05-19T00:07:51.127Z,18.10
2023-05-19T00:10:20.028Z,18.10
2023-05-19T00:12:51.319Z,18.10
2023-05-19T00:15:20.985Z,18.10
2023-05-19T00:17:48.951Z,18.10
2023-05-19T00:20:17.028Z,18.00
2023-05-19T00:22:44.954Z,18.00
2023-05-19T00:25:12.824Z,18.00
2023-05-19T00:27:40.684Z,17.90
2023-05-19T00:30:11.088Z,18.00
2023-05-19T00:32:38.990Z,17.90
2023-05-19T00:35:07.791Z,17.90
2023-05-19T00:37:35.627Z,17.90
2023-05-19T00:40:06.103Z,17.90
2023-05-19T00:42:34.211Z,17.80
2023-05-19T00:45:02.172Z,17.90
2023-05-19T00:47:31.471Z,17.90
2023-05-19T00:49:59.808Z,17.90
2023-05-19T00:52:28.085Z,17.90
2023-05-19T00:54:56.980Z,17.80
2023-05-19T00:57:26.025Z,17.80
2023-05-19T00:59:54.004Z,17.80
2023-05-19T01:02:22.401Z,17.80
2023-05-19T01:04:53.374Z,17.80
2023-05-19T01:07:22.029Z,17.70
2023-05-19T01:09:50.265Z,17.70
2023-05-19T01:12:18.722Z,17.70
2023-05-19T01:14:46.650Z,17.60
2023-05-19T01:17:23.070Z,17.60
2023-05-19T01:20:01.993Z,17.60
2023-05-19T01:22:46.755Z,17.50
2023-05-19T01:25:49.926Z,17.60
2023-05-19T01:28:32.510Z,17.60
2023-05-19T01:31:04.149Z,17.60
2023-05-19T01:33:33.479Z,17.50
2023-05-19T01:36:03.158Z,17.50
2023-05-19T01:38:33.078Z,17.50
2023-05-19T01:41:01.833Z,17.50
2023-05-19T01:43:30.660Z,17.40
2023-05-19T01:45:59.442Z,17.40
2023-05-19T01:48:30.046Z,17.40
2023-05-19T01:50:58.933Z,17.40
2023-05-19T01:53:27.194Z,17.40
2023-05-19T01:55:57.183Z,17.40
2023-05-19T01:58:32.472Z,17.50
2023-05-19T02:01:04.816Z,17.40
2023-05-19T02:03:54.432Z,17.40
2023-05-19T02:06:42.543Z,17.40
2023-05-19T02:09:19.522Z,17.40
2023-05-19T02:11:53.362Z,17.40
2023-05-19T02:14:25.818Z,17.40
2023-05-19T02:16:54.814Z,17.40
2023-05-19T02:19:25.823Z,17.20
2023-05-19T02:21:56.303Z,17.30
2023-05-19T02:24:24.578Z,17.40
2023-05-19T02:26:53.125Z,17.30
2023-05-19T02:29:21.591Z,17.30
2023-05-19T02:31:51.610Z,17.30
2023-05-19T02:34:20.880Z,17.20
2023-05-19T02:36:50.611Z,17.10
2023-05-19T02:39:19.007Z,17.20
2023-05-19T02:41:47.152Z,17.20
2023-05-19T02:44:15.024Z,17.10
2023-05-19T02:46:43.012Z,17.10
2023-05-19T02:49:11.251Z,17.10
2023-05-19T02:51:40.328Z,17.10
2023-05-19T02:54:09.647Z,17.10
2023-05-19T02:56:37.526Z,17.10
2023-05-19T02:59:06.230Z,16.90
2023-05-19T03:01:34.153Z,17.00
2023-05-19T03:04:02.409Z,17.00
2023-05-19T03:06:32.717Z,17.00
2023-05-19T03:09:00.628Z,17.10
2023-05-19T03:11:30.863Z,17.10
2023-05-19T03:13:59.553Z,17.10
2023-05-19T03:16:28.103Z,17.00
2023-05-19T03:18:57.528Z,17.10
2023-05-19T03:21:25.760Z,17.00
2023-05-19T03:23:54.616Z,17.10
2023-05-19T03:26:24.400Z,17.00
2023-05-19T03:28:54.145Z,17.00
2023-05-19T03:31:22.766Z,17.00
2023-05-19T03:33:50.738Z,17.00
2023-05-19T03:36:19.032Z,17.00
2023-05-19T03:38:47.187Z,17.00
2023-05-19T03:41:15.217Z,17.00
2023-05-19T03:43:43.044Z,17.00
2023-05-19T03:46:12.780Z,17.00
2023-05-19T03:49:16.113Z,17.00
2023-05-19T03:51:59.037Z,16.90
2023-05-19T03:54:45.476Z,17.00
2023-05-19T03:57:13.586Z,16.80
2023-05-19T03:59:42.171Z,16.90
2023-05-19T04:02:11.748Z,16.90
2023-05-19T04:04:39.760Z,16.80
2023-05-19T04:07:08.024Z,17.00
2023-05-19T04:09:37.721Z,17.00
2023-05-19T04:12:06.534Z,17.00
2023-05-19T04:14:34.416Z,17.00
2023-05-19T04:17:02.458Z,17.00
2023-05-19T04:19:31.741Z,17.00
2023-05-19T04:21:59.623Z,17.00
2023-05-19T04:24:27.477Z,17.00
2023-05-19T04:26:56.128Z,17.10
2023-05-19T04:29:24.246Z,17.20
2023-05-19T04:31:52.682Z,17.10
2023-05-19T04:34:20.838Z,17.20
2023-05-19T04:36:53.056Z,17.20
2023-05-19T04:39:22.612Z,17.20
2023-05-19T04:41:51.476Z,17.20
2023-05-19T04:44:19.455Z,17.20
2023-05-19T04:46:54.246Z,17.40
2023-05-19T04:49:24.268Z,17.40
2023-05-19T04:51:55.866Z,17.60
2023-05-19T04:54:27.673Z,17.90
2023-05-19T04:56:56.792Z,18.70
2023-05-19T04:59:26.785Z,19.10
2023-05-19T05:01:56.068Z,19.00
2023-05-19T05:04:25.908Z,18.90
2023-05-19T05:06:55.225Z,18.60
2023-05-19T05:09:24.715Z,18.30
2023-05-19T05:11:53.177Z,17.90
2023-05-19T05:14:21.536Z,17.90
2023-05-19T05:16:50.600Z,17.90
2023-05-19T05:19:23.511Z,18.20
2023-05-19T05:21:52.304Z,18.20
2023-05-19T05:24:22.457Z,18.20
2023-05-19T05:26:55.340Z,18.30
2023-05-19T05:29:23.215Z,18.10
2023-05-19T05:31:51.118Z,18.20
2023-05-19T05:34:19.128Z,18.10
2023-05-19T05:36:47.018Z,18.00
2023-05-19T05:39:14.998Z,18.20
2023-05-19T05:41:46.426Z,17.80
2023-05-19T05:44:14.315Z,17.90
2023-05-19T05:46:45.210Z,18.00
2023-05-19T05:49:13.599Z,18.00
2023-05-19T05:51:54.278Z,18.00
2023-05-19T05:54:30.662Z,18.20
2023-05-19T05:57:00.776Z,18.20
2023-05-19T05:59:28.712Z,18.40
2023-05-19T06:01:56.920Z,18.40
2023-05-19T06:04:25.640Z,18.40
2023-05-19T06:07:01.340Z,18.40
2023-05-19T06:09:33.005Z,18.30
2023-05-19T06:12:02.415Z,18.50
2023-05-19T06:14:35.561Z,18.50
2023-05-19T06:17:38.440Z,18.60
2023-05-19T06:20:08.554Z,18.60
2023-05-19T06:22:37.114Z,18.60
2023-05-19T06:25:06.929Z,18.70
2023-05-19T06:27:36.447Z,18.70
2023-05-19T06:30:05.109Z,18.60
2023-05-19T06:32:38.656Z,18.50
2023-05-19T06:35:08.793Z,18.30
2023-05-19T06:37:36.763Z,18.70
2023-05-19T06:40:05.669Z,18.80
2023-05-19T06:42:33.616Z,18.90
2023-05-19T06:45:29.157Z,18.70
2023-05-19T06:47:59.218Z,18.70
2023-05-19T06:50:27.406Z,18.80
2023-05-19T06:52:57.168Z,18.90
2023-05-19T06:55:25.663Z,19.00
2023-05-19T06:57:53.768Z,18.80
2023-05-19T07:00:23.816Z,18.90
2023-05-19T07:02:54.895Z,18.90
2023-05-19T07:05:23.144Z,19.10
2023-05-19T07:07:56.008Z,19.10
2023-05-19T07:10:27.258Z,19.10
2023-05-19T07:12:56.103Z,19.00
2023-05-19T07:15:26.513Z,19.00
2023-05-19T07:17:56.395Z,19.30
2023-05-19T07:20:26.198Z,19.20
2023-05-19T07:22:55.332Z,19.30
2023-05-19T07:25:23.675Z,19.50
2023-05-19T07:27:51.632Z,19.60
2023-05-19T07:30:19.506Z,19.70
2023-05-19T07:32:47.414Z,19.50
2023-05-19T07:35:16.734Z,19.50
2023-05-19T07:37:44.643Z,19.50
2023-05-19T07:40:13.104Z,19.60
2023-05-19T07:42:41.563Z,19.60
2023-05-19T07:45:10.216Z,19.70
2023-05-19T07:47:38.463Z,19.50
2023-05-19T07:50:07.386Z,19.60
2023-05-19T07:52:36.634Z,19.60
2023-05-19T07:55:04.889Z,19.50
2023-05-19T07:57:33.112Z,19.50
2023-05-19T08:00:01.090Z,19.70
2023-05-19T08:02:29.190Z,20.30
2023-05-19T08:04:57.241Z,20.80
2023-05-19T08:07:25.278Z,21.40
2023-05-19T08:09:54.505Z,22.10
2023-05-19T08:12:22.362Z,22.60
2023-05-19T08:14:50.301Z,23.20
2023-05-19T08:17:18.176Z,23.50
2023-05-19T08:19:46.091Z,23.60
2023-05-19T08:22:14.264Z,23.90
2023-05-19T08:24:43.157Z,23.80
2023-05-19T08:27:12.393Z,23.40
2023-05-19T08:29:40.236Z,23.10
2023-05-19T08:32:09.787Z,22.90
2023-05-19T08:34:39.453Z,23.10
2023-05-19T08:37:07.634Z,23.10
2023-05-19T08:39:35.869Z,22.80
2023-05-19T08:42:03.868Z,22.30
2023-05-19T08:44:33.794Z,21.90
2023-05-19T08:47:05.165Z,21.70
2023-05-19T08:49:36.171Z,21.90
2023-05-19T08:52:14.465Z,22.20
2023-05-19T08:54:48.241Z,22.40
2023-05-19T08:57:16.349Z,22.10
2023-05-19T08:59:46.265Z,21.80
2023-05-19T09:02:15.321Z,22.10
2023-05-19T09:04:46.042Z,22.40
2023-05-19T09:07:15.170Z,22.60
2023-05-19T09:09:44.091Z,22.60
2023-05-19T09:12:12.340Z,22.50
2023-05-19T09:14:40.597Z,22.50
2023-05-19T09:17:10.699Z,22.50
2023-05-19T09:19:44.408Z,22.10
2023-05-19T09:22:13.835Z,22.20
2023-05-19T09:24:42.200Z,22.00
2023-05-19T09:27:10.708Z,21.60
2023-05-19T09:29:39.701Z,22.00
2023-05-19T09:32:09.275Z,22.20
2023-05-19T09:34:42.413Z,22.00
2023-05-19T09:37:10.370Z,22.10
2023-05-19T09:39:39.977Z,22.50
2023-05-19T09:42:07.910Z,22.50
2023-05-19T09:44:36.711Z,22.20
2023-05-19T09:47:05.014Z,22.20
2023-05-19T09:49:34.210Z,22.20
2023-05-19T09:52:04.573Z,22.20
2023-05-19T09:54:34.684Z,22.30
2023-05-19T09:57:04.246Z,22.00
2023-05-19T09:59:34.029Z,21.90
2023-05-19T10:02:03.004Z,22.00
2023-05-19T10:04:32.089Z,21.90
2023-05-19T10:07:05.477Z,21.80
2023-05-19T10:09:35.032Z,22.10
2023-05-19T10:12:04.358Z,22.00
2023-05-19T10:14:32.357Z,22.00
2023-05-19T10:17:03.060Z,21.90
2023-05-19T10:19:31.166Z,22.10
2023-05-19T10:21:59.151Z,22.10
2023-05-19T10:24:28.461Z,22.00
2023-05-19T10:27:00.325Z,22.10
2023-05-19T10:29:31.240Z,22.30
2023-05-19T10:32:05.833Z,22.60
2023-05-19T10:34:57.020Z,22.60
2023-05-19T10:37:33.130Z,22.50
2023-05-19T10:40:10.355Z,22.90
2023-05-19T10:42:45.070Z,22.70
2023-05-19T10:45:18.596Z,22.40
2023-05-19T10:47:47.183Z,22.40
2023-05-19T10:50:15.686Z,22.40
2023-05-19T10:52:44.689Z,22.40
2023-05-19T10:55:17.902Z,22.50
2023-05-19T10:57:56.995Z,22.50
2023-05-19T11:00:30.462Z,22.60
2023-05-19T11:03:14.389Z,22.60
2023-05-19T11:05:45.194Z,22.40
2023-05-19T11:08:13.731Z,22.30
2023-05-19T11:10:46.639Z,22.30
2023-05-19T11:13:22.626Z,22.10
2023-05-19T11:15:51.166Z,22.10
2023-05-19T11:18:21.209Z,22.10
2023-05-19T11:20:58.535Z,22.20
2023-05-19T11:23:26.986Z,22.10
2023-05-19T11:25:56.259Z,22.00
2023-05-19T11:28:25.937Z,22.10
2023-05-19T11:30:57.550Z,22.20
2023-05-19T11:33:27.721Z,22.40
2023-05-19T11:35:58.789Z,22.30
2023-05-19T11:38:28.378Z,22.30
2023-05-19T11:40:58.385Z,22.30
2023-05-19T11:43:27.024Z,22.40
2023-05-19T11:45:55.639Z,22.50
2023-05-19T11:48:24.075Z,22.40
2023-05-19T11:50:52.378Z,22.20
2023-05-19T11:53:20.852Z,22.10
2023-05-19T11:55:50.151Z,21.90
2023-05-19T11:58:25.907Z,21.70
2023-05-19T12:00:55.070Z,21.30
2023-05-19T12:03:27.896Z,21.50
2023-05-19T12:05:56.070Z,21.70
2023-05-19T12:08:24.064Z,21.70
2023-05-19T12:10:54.030Z,21.70
2023-05-19T12:13:23.550Z,21.70
2023-05-19T12:15:53.237Z,21.70
2023-05-19T12:18:21.309Z,21.40
2023-05-19T12:20:49.410Z,21.30
2023-05-19T12:23:17.466Z,21.40
2023-05-19T12:25:45.478Z,21.60
2023-05-19T12:28:13.390Z,21.40
2023-05-19T12:30:48.825Z,21.40
2023-05-19T12:33:17.009Z,21.50
2023-05-19T12:35:47.677Z,21.80
2023-05-19T12:38:16.513Z,22.00
2023-05-19T12:40:44.778Z,21.80
2023-05-19T12:43:20.943Z,21.60
2023-05-19T12:45:52.244Z,21.40
2023-05-19T12:48:23.580Z,21.40
2023-05-19T12:50:54.044Z,21.60
2023-05-19T12:53:22.100Z,21.40
2023-05-19T12:55:52.918Z,21.50
2023-05-19T12:58:22.674Z,21.40
2023-05-19T13:00:52.711Z,21.50
2023-05-19T13:03:21.986Z,21.40
2023-05-19T13:05:51.710Z,21.30
2023-05-19T13:08:21.382Z,21.20
2023-05-19T13:10:50.022Z,21.30
2023-05-19T13:13:19.257Z,21.40
2023-05-19T13:15:49.100Z,21.40
2023-05-19T13:18:18.943Z,21.60
2023-05-19T13:20:49.902Z,21.40
2023-05-19T13:23:18.555Z,21.30
2023-05-19T13:25:46.872Z,21.40
2023-05-19T13:28:14.950Z,21.40
2023-05-19T13:30:44.421Z,21.20
2023-05-19T13:33:12.548Z,21.40
2023-05-19T13:35:41.861Z,21.40
2023-05-19T13:38:10.841Z,21.50
2023-05-19T13:40:39.988Z,21.60
2023-05-19T13:43:08.626Z,21.40
2023-05-19T13:45:36.624Z,21.60
2023-05-19T13:48:07.067Z,21.60
2023-05-19T13:50:35.149Z,21.30
2023-05-19T13:53:04.546Z,21.20
2023-05-19T13:55:32.504Z,21.00
2023-05-19T13:58:00.406Z,21.00
2023-05-19T14:00:28.422Z,21.00
2023-05-19T14:02:56.529Z,20.90
2023-05-19T14:05:24.504Z,20.80
2023-05-19T14:07:52.436Z,20.80
2023-05-19T14:10:21.816Z,20.80
2023-05-19T14:13:25.352Z,21.00
2023-05-19T14:15:37.528Z,21.00
2023-05-19T14:18:07.383Z,21.10
2023-05-19T14:20:36.332Z,21.10
2023-05-19T14:23:04.454Z,21.20
2023-05-19T14:25:33.685Z,21.20
2023-05-19T14:28:02.008Z,21.10
2023-05-19T14:30:29.929Z,21.20
2023-05-19T14:32:57.977Z,21.10
2023-05-19T14:35:26.523Z,21.30
2023-05-19T14:37:54.590Z,21.40
2023-05-19T14:40:22.465Z,21.40
2023-05-19T14:42:51.658Z,21.20
2023-05-19T14:45:19.629Z,21.20
2023-05-19T14:47:48.058Z,21.00
2023-05-19T14:50:16.138Z,21.00
2023-05-19T14:52:44.060Z,21.20
2023-05-19T14:55:11.956Z,21.30
2023-05-19T14:57:39.820Z,21.30
2023-05-19T15:00:10.282Z,21.30
2023-05-19T15:02:39.230Z,21.20
2023-05-19T15:05:07.697Z,21.20
2023-05-19T15:07:35.606Z,21.10
2023-05-19T15:10:04.168Z,21.00
2023-05-19T15:12:32.066Z,21.10
2023-05-19T15:15:00.049Z,21.20
2023-05-19T15:17:29.274Z,21.20
2023-05-19T15:19:57.211Z,21.40
2023-05-19T15:22:25.106Z,21.50
2023-05-19T15:24:52.976Z,21.50
2023-05-19T15:27:21.142Z,21.60
2023-05-19T15:29:48.998Z,21.50
2023-05-19T15:32:16.906Z,21.40
2023-05-19T15:34:46.280Z,21.30
2023-05-19T15:37:14.373Z,21.50
2023-05-19T15:39:42.269Z,21.60
2023-05-19T15:42:10.119Z,21.60
2023-05-19T15:44:38.454Z,21.60
2023-05-19T15:47:06.536Z,21.70
2023-05-19T15:49:34.414Z,21.80
2023-05-19T15:52:04.708Z,21.80
2023-05-19T15:54:32.602Z,21.80
2023-05-19T15:57:00.469Z,21.70
2023-05-19T15:59:28.348Z,21.50
2023-05-19T16:01:56.626Z,21.40
2023-05-19T16:04:24.560Z,21.40
2023-05-19T16:06:52.427Z,21.40
2023-05-19T16:09:21.671Z,21.60
2023-05-19T16:11:49.610Z,21.60
2023-05-19T16:14:17.448Z,21.70
2023-05-19T16:16:45.571Z,21.80
2023-05-19T16:19:13.598Z,21.70
2023-05-19T16:21:41.531Z,21.60
2023-05-19T16:24:09.396Z,21.50
2023-05-19T16:26:38.587Z,21.50
2023-05-19T16:29:06.456Z,21.40
2023-05-19T16:31:34.361Z,21.40
2023-05-19T16:34:02.258Z,21.30
2023-05-19T16:36:30.155Z,21.10
2023-05-19T16:38:58.067Z,21.30
2023-05-19T16:41:26.501Z,21.40
2023-05-19T16:43:55.699Z,21.40
2023-05-19T16:46:23.706Z,21.60
2023-05-19T16:48:51.711Z,21.50
2023-05-19T16:51:19.565Z,21.60
2023-05-19T16:53:47.391Z,21.60
2023-05-19T16:56:15.308Z,21.40
2023-05-19T16:58:43.207Z,21.20
2023-05-19T17:01:12.466Z,21.10
2023-05-19T17:03:40.763Z,21.10
2023-05-19T17:06:08.692Z,21.10
2023-05-19T17:08:36.594Z,21.20
2023-05-19T17:11:06.900Z,21.20
2023-05-19T17:13:36.278Z,21.20
2023-05-19T17:16:04.260Z,21.20
2023-05-19T17:18:33.489Z,21.20
2023-05-19T17:21:03.908Z,21.30
2023-05-19T17:23:32.175Z,21.20
2023-05-19T17:26:00.009Z,21.10
2023-05-19T17:28:29.551Z,21.10
2023-05-19T17:30:57.458Z,21.10
2023-05-19T17:33:25.497Z,21.20
2023-05-19T17:35:54.972Z,21.40
2023-05-19T17:38:22.968Z,21.20
2023-05-19T17:40:50.893Z,21.20
2023-05-19T17:43:18.743Z,21.10
2023-05-19T17:45:46.580Z,21.00
2023-05-19T17:48:14.746Z,21.10
2023-05-19T17:50:43.057Z,21.00
2023-05-19T17:53:12.902Z,20.90
2023-05-19T17:55:41.489Z,20.90
2023-05-19T17:58:09.859Z,20.60
2023-05-19T18:00:38.386Z,20.60
2023-05-19T18:03:07.110Z,20.60
2023-05-19T18:05:35.495Z,20.30
2023-05-19T18:08:06.964Z,20.40
2023-05-19T18:10:38.528Z,20.50
2023-05-19T18:13:07.173Z,20.60
2023-05-19T18:15:35.969Z,20.70
2023-05-19T18:18:07.363Z,20.80
2023-05-19T18:20:35.952Z,20.90
2023-05-19T18:23:04.147Z,21.00
2023-05-19T18:25:32.001Z,21.00
2023-05-19T18:28:01.234Z,20.90
2023-05-19T18:30:29.110Z,20.90
2023-05-19T18:32:57.079Z,20.90
2023-05-19T18:35:24.974Z,21.10
2023-05-19T18:37:56.205Z,20.90
2023-05-19T18:40:24.450Z,20.80
2023-05-19T18:42:52.343Z,20.50
2023-05-19T18:45:21.523Z,20.20
2023-05-19T18:47:49.466Z,20.20
2023-05-19T18:50:17.584Z,20.00
2023-05-19T18:52:45.494Z,20.10
2023-05-19T18:55:13.332Z,20.00
2023-05-19T18:57:41.775Z,20.00
2023-05-19T19:00:10.613Z,20.00
2023-05-19T19:02:40.020Z,20.00
2023-05-19T19:05:09.482Z,20.20
2023-05-19T19:07:40.976Z,20.20
2023-05-19T19:10:13.807Z,20.30
2023-05-19T19:12:41.707Z,20.30
2023-05-19T19:15:10.750Z,20.00
2023-05-19T19:17:41.021Z,20.10
2023-05-19T19:20:10.118Z,20.00
2023-05-19T19:22:38.113Z,19.80
2023-05-19T19:25:06.692Z,19.90
2023-05-19T19:27:35.502Z,19.90
2023-05-19T19:30:04.364Z,19.90
2023-05-19T19:32:32.507Z,19.90
2023-05-19T19:35:01.837Z,19.90
2023-05-19T19:37:29.746Z,20.00
2023-05-19T19:39:57.619Z,20.00
2023-05-19T19:42:25.763Z,20.00
2023-05-19T19:44:56.093Z,20.10
2023-05-19T19:47:24.122Z,20.40
2023-05-19T19:49:52.359Z,20.70
2023-05-19T19:52:21.708Z,20.80
2023-05-19T19:54:49.585Z,20.80
2023-05-19T19:57:18.286Z,20.80
2023-05-19T19:59:46.176Z,20.90
2023-05-19T20:02:14.856Z,20.90
2023-05-19T20:04:42.895Z,21.00
2023-05-19T20:07:11.114Z,20.90
2023-05-19T20:09:45.405Z,20.90
2023-05-19T20:12:15.999Z,21.00
2023-05-19T20:14:45.439Z,21.00
2023-05-19T20:17:13.296Z,20.90
2023-05-19T20:19:43.790Z,20.90
2023-05-19T20:22:11.723Z,20.90
2023-05-19T20:24:40.962Z,20.80
2023-05-19T20:27:09.383Z,20.70
2023-05-19T20:29:37.581Z,20.80
2023-05-19T20:32:05.731Z,20.80
2023-05-19T20:34:33.633Z,20.70
2023-05-19T20:37:01.665Z,20.80
2023-05-19T20:39:30.922Z,20.80
2023-05-19T20:42:00.146Z,20.80
2023-05-19T20:44:28.009Z,20.80
2023-05-19T20:46:56.478Z,20.80
2023-05-19T20:49:24.379Z,20.70
2023-05-19T20:51:52.202Z,20.80
2023-05-19T20:54:20.506Z,20.80
2023-05-19T20:56:48.451Z,20.80
2023-05-19T20:59:17.680Z,20.80
2023-05-19T21:01:46.389Z,20.80
2023-05-19T21:04:14.724Z,20.70
2023-05-19T21:06:42.620Z,20.70
2023-05-19T21:09:10.722Z,20.90
2023-05-19T21:11:38.665Z,20.80
2023-05-19T21:14:08.490Z,20.70
2023-05-19T21:16:39.112Z,20.80
2023-05-19T21:19:07.531Z,20.70
2023-05-19T21:21:36.186Z,20.80
2023-05-19T21:24:04.490Z,20.80
2023-05-19T21:26:32.696Z,20.70
2023-05-19T21:29:01.058Z,20.80
2023-05-19T21:31:28.975Z,20.80
2023-05-19T21:33:58.246Z,20.80
2023-05-19T21:36:26.228Z,20.70
2023-05-19T21:38:54.199Z,20.70
2023-05-19T21:41:22.267Z,20.60
2023-05-19T21:43:50.093Z,20.60
2023-05-19T21:46:18.047Z,20.70
2023-05-19T21:48:46.003Z,20.70
2023-05-19T21:51:15.202Z,20.60
2023-05-19T21:53:43.088Z,20.60
2023-05-19T21:56:11.102Z,20.60
2023-05-19T21:58:39.107Z,20.50
2023-05-19T22:01:07.917Z,20.40
2023-05-19T22:03:35.954Z,20.50
2023-05-19T22:06:06.424Z,20.60
2023-05-19T22:08:35.709Z,20.50
2023-05-19T22:11:04.437Z,20.40
2023-05-19T22:13:32.535Z,20.40
2023-05-19T22:16:00.426Z,20.40
2023-05-19T22:18:28.644Z,20.40
2023-05-19T22:20:56.507Z,20.40
2023-05-19T22:23:24.399Z,20.50
2023-05-19T22:25:53.671Z,20.50
2023-05-19T22:28:21.553Z,20.40
2023-05-19T22:30:49.405Z,20.20
2023-05-19T22:33:17.350Z,20.20
2023-05-19T22:35:45.913Z,20.30
2023-05-19T22:38:13.860Z,20.10
2023-05-19T22:40:41.810Z,20.20
2023-05-19T22:43:11.061Z,20.10
2023-05-19T22:45:39.052Z,20.10
2023-05-19T22:48:07.531Z,20.10
2023-05-19T22:50:35.456Z,20.20
2023-05-19T22:53:03.402Z,20.10
2023-05-19T22:55:32.197Z,20.30
2023-05-19T22:58:00.637Z,20.10
2023-05-19T23:00:29.876Z,20.20
2023-05-19T23:02:58.239Z,20.10
2023-05-19T23:05:26.449Z,20.10
2023-05-19T23:07:54.415Z,20.10
2023-05-19T23:10:22.278Z,19.90
2023-05-19T23:12:51.391Z,19.90
2023-05-19T23:15:19.922Z,20.00
2023-05-19T23:17:49.221Z,20.10
2023-05-19T23:20:17.152Z,20.00
2023-05-19T23:22:45.056Z,20.00
2023-05-19T23:25:12.965Z,20.00
2023-05-19T23:27:40.960Z,20.10
2023-05-19T23:30:09.861Z,19.80
2023-05-19T23:32:37.788Z,20.00
2023-05-19T23:35:18.457Z,20.10
2023-05-19T23:37:46.392Z,20.10
2023-05-19T23:40:16.801Z,20.10
2023-05-19T23:42:45.518Z,20.10
2023-05-19T23:45:13.580Z,20.20
2023-05-19T23:47:41.551Z,20.10
2023-05-19T23:50:10.619Z,20.10
2023-05-19T23:52:39.839Z,20.10
2023-05-19T23:55:09.784Z,19.90
2023-05-19T23:57:37.773Z,20.00
